Time;durP1;ratioP1;P1;durP2;ratioP2;P2;SDS_P1;SDS_P2;PMS_P1;PMS_P2;Temp;Humidity;BMP_temperature;BMP_pressure;BME280_temperature;BME280_humidity;BME280_pressure;Samples;Min_cycle;Max_cycle;Signal;HPM_P1;HPM_P2
2023/10/23 00:00:30;;;;;;;18.23;12.97;;;;;22.10;100164.00;;;;2063815;28;20211;-63
2023/10/23 00:01:34;;;;;;;16.00;12.57;;;;;22.10;100188.00;;;;2071276;28;20217;-63
2023/10/23 00:02:38;;;;;;;15.95;13.18;;;;;22.10;100153.00;;;;2064454;28;20211;-63
2023/10/23 00:03:38;;;;;;;16.88;11.90;;;;;22.10;100192.00;;;;2064127;28;20211;-63
2023/10/23 00:04:39;;;;;;;15.67;12.13;;;;;22.10;100189.00;;;;2051209;28;20695;-63
2023/10/23 00:05:39;;;;;;;15.77;12.33;;;;;22.10;100193.00;;;;2068126;28;20202;-63
2023/10/23 00:06:39;;;;;;;15.87;12.03;;;;;22.10;100200.00;;;;2063282;28;20250;-63
2023/10/23 00:07:40;;;;;;;14.23;11.53;;;;;22.10;100183.00;;;;2060882;28;20234;-63
2023/10/23 00:08:40;;;;;;;16.10;11.43;;;;;22.10;100195.00;;;;2063408;28;20687;-63
2023/10/23 00:09:41;;;;;;;14.90;11.97;;;;;22.10;100185.00;;;;2040922;28;20228;-63
2023/10/23 00:10:42;;;;;;;12.67;10.87;;;;;22.10;100193.00;;;;2060386;28;20693;-63
2023/10/23 00:11:42;;;;;;;13.38;10.77;;;;;22.10;100150.00;;;;2055247;28;20882;-63
2023/10/23 00:12:43;;;;;;;16.40;11.30;;;;;22.10;100195.00;;;;2047856;28;20232;-63
2023/10/23 00:13:43;;;;;;;12.10;10.20;;;;;22.10;100200.00;;;;2059172;28;20223;-63
2023/10/23 00:14:43;;;;;;;13.30;11.00;;;;;22.00;100198.00;;;;2054178;28;20242;-63
2023/10/23 00:15:44;;;;;;;12.30;10.33;;;;;22.00;100187.00;;;;2061976;28;20219;-63
2023/10/23 00:16:44;;;;;;;14.47;11.47;;;;;22.10;100197.00;;;;2074019;28;20218;-63
2023/10/23 00:17:44;;;;;;;14.03;11.80;;;;;22.10;100183.00;;;;2068625;28;20214;-63
2023/10/23 00:18:45;;;;;;;14.20;11.30;;;;;22.10;100203.00;;;;2063234;28;20309;-63
2023/10/23 00:19:45;;;;;;;13.90;10.37;;;;;22.00;100196.00;;;;2062461;28;20751;-63
2023/10/23 00:20:46;;;;;;;12.30;9.77;;;;;22.00;100197.00;;;;2071105;28;20297;-63
2023/10/23 00:21:46;;;;;;;13.10;11.07;;;;;22.00;100204.00;;;;2063173;28;20234;-63
2023/10/23 00:22:46;;;;;;;11.67;9.80;;;;;22.00;100199.00;;;;2071437;28;20213;-63
2023/10/23 00:23:47;;;;;;;13.20;10.20;;;;;22.00;100202.00;;;;2071732;28;20226;-63
2023/10/23 00:24:47;;;;;;;17.30;10.20;;;;;22.00;100201.00;;;;2061144;28;20234;-63
2023/10/23 00:25:47;;;;;;;13.80;9.40;;;;;22.00;100201.00;;;;2067414;28;20229;-63
2023/10/23 00:26:47;;;;;;;12.80;9.23;;;;;22.00;100199.00;;;;2064561;28;20219;-63
2023/10/23 00:27:48;;;;;;;17.03;10.23;;;;;22.00;100199.00;;;;2067917;28;20246;-63
2023/10/23 00:28:49;;;;;;;10.20;8.47;;;;;22.00;100190.00;;;;2068557;28;20222;-63
2023/10/23 00:29:49;;;;;;;11.60;8.73;;;;;22.00;100203.00;;;;2062835;28;20225;-63
2023/10/23 00:30:49;;;;;;;10.40;8.87;;;;;22.00;100194.00;;;;2070962;28;20232;-63
2023/10/23 00:31:50;;;;;;;12.10;9.47;;;;;22.00;100195.00;;;;2063037;28;20288;-63
2023/10/23 00:32:50;;;;;;;10.77;8.77;;;;;22.00;100195.00;;;;2062932;28;20218;-63
2023/10/23 00:33:50;;;;;;;11.47;8.50;;;;;22.00;100191.00;;;;2062332;28;20234;-63
2023/10/23 00:34:51;;;;;;;13.57;9.87;;;;;22.00;100210.00;;;;2061595;28;20221;-63
2023/10/23 00:35:51;;;;;;;12.57;8.93;;;;;22.00;100195.00;;;;2066568;28;20226;-63
2023/10/23 00:36:51;;;;;;;12.37;9.40;;;;;22.00;100192.00;;;;2064313;28;20207;-63
2023/10/23 00:37:51;;;;;;;14.20;9.30;;;;;22.00;100199.00;;;;2063805;28;20218;-63
2023/10/23 00:38:52;;;;;;;11.30;8.17;;;;;22.00;100192.00;;;;2062706;28;20278;-63
2023/10/23 00:39:52;;;;;;;12.53;8.40;;;;;22.00;100196.00;;;;2061675;28;20219;-63
2023/10/23 00:40:52;;;;;;;12.43;9.37;;;;;22.00;100202.00;;;;2071760;28;20233;-63
2023/10/23 00:41:53;;;;;;;11.93;9.00;;;;;22.00;100198.00;;;;2070922;28;20267;-63
2023/10/23 00:42:53;;;;;;;9.50;8.00;;;;;22.00;100193.00;;;;2071789;28;20218;-63
2023/10/23 00:43:53;;;;;;;12.60;8.27;;;;;22.00;100197.00;;;;2067031;28;20219;-63
2023/10/23 00:44:54;;;;;;;11.07;8.43;;;;;22.00;100193.00;;;;2049628;28;20223;-63
2023/10/23 00:45:58;;;;;;;10.93;8.50;;;;;22.00;100204.00;;;;2061914;28;20238;-63
2023/10/23 00:46:59;;;;;;;10.00;7.95;;;;;22.00;100201.00;;;;2073352;28;20265;-63
2023/10/23 00:47:59;;;;;;;11.70;8.63;;;;;22.00;100201.00;;;;2063979;28;20230;-63
2023/10/23 00:48:59;;;;;;;9.30;7.80;;;;;22.00;100210.00;;;;2057265;28;20278;-63
2023/10/23 00:50:00;;;;;;;9.13;7.50;;;;;22.00;100206.00;;;;2058810;28;20210;-63
2023/10/23 00:51:00;;;;;;;8.13;7.00;;;;;22.00;100210.00;;;;2075519;28;20206;-63
2023/10/23 00:52:01;;;;;;;10.50;8.57;;;;;22.00;100173.00;;;;2065337;28;20253;-63
2023/10/23 00:53:02;;;;;;;8.90;7.45;;;;;22.00;100212.00;;;;2073731;28;20221;-63
2023/10/23 00:54:03;;;;;;;8.07;7.10;;;;;22.00;100210.00;;;;2065034;28;20820;-63
2023/10/23 00:55:04;;;;;;;8.87;6.57;;;;;22.00;100161.00;;;;2043504;28;20714;-63
2023/10/23 00:56:04;;;;;;;9.00;7.63;;;;;22.00;100197.00;;;;2064445;28;20207;-63
2023/10/23 00:57:05;;;;;;;9.90;7.40;;;;;21.90;100117.00;;;;2078264;28;20717;-63
2023/10/23 00:58:05;;;;;;;8.20;6.50;;;;;22.00;100200.00;;;;2061398;28;20214;-63
2023/10/23 00:59:05;;;;;;;8.17;6.50;;;;;22.00;100208.00;;;;2045825;28;20208;-63
2023/10/23 01:00:06;;;;;;;9.30;7.20;;;;;22.00;100168.00;;;;2055861;28;20229;-63
2023/10/23 01:01:10;;;;;;;9.07;7.10;;;;;22.00;100210.00;;;;2053080;28;20232;-63
2023/10/23 01:02:10;;;;;;;9.70;6.43;;;;;21.90;100136.00;;;;2046443;28;20275;-63
2023/10/23 01:03:10;;;;;;;8.27;6.90;;;;;21.90;100204.00;;;;2054464;28;20698;-63
2023/10/23 01:04:11;;;;;;;8.87;6.73;;;;;21.90;100156.00;;;;2057833;28;20226;-63
2023/10/23 01:05:11;;;;;;;7.60;6.80;;;;;22.00;100209.00;;;;2052285;28;20214;-63
2023/10/23 01:06:14;;;;;;;10.90;6.97;;;;;21.90;100207.00;;;;2062817;28;20710;-63
2023/10/23 01:07:15;;;;;;;8.85;6.72;;;;;21.90;100203.00;;;;2064924;28;20230;-63
2023/10/23 01:08:15;;;;;;;8.17;6.10;;;;;21.90;100208.00;;;;2064369;28;20812;-63
2023/10/23 01:09:18;;;;;;;11.23;6.33;;;;;21.90;100197.00;;;;2060193;28;20616;-63
2023/10/23 01:10:19;;;;;;;8.93;6.68;;;;;21.90;100209.00;;;;2061022;28;20247;-63
2023/10/23 01:11:19;;;;;;;8.53;6.20;;;;;21.90;100215.00;;;;2062774;28;20610;-63
2023/10/23 01:12:19;;;;;;;6.50;5.63;;;;;22.00;100212.00;;;;2070690;28;20633;-63
2023/10/23 01:13:20;;;;;;;7.97;6.43;;;;;21.90;100222.00;;;;2071653;28;20214;-63
2023/10/23 01:14:20;;;;;;;6.57;5.70;;;;;21.90;100212.00;;;;2060835;28;20241;-63
2023/10/23 01:15:21;;;;;;;8.40;6.63;;;;;21.90;100211.00;;;;2055033;28;20215;-63
2023/10/23 01:16:21;;;;;;;7.90;6.60;;;;;21.90;100208.00;;;;2066452;28;20277;-63
2023/10/23 01:17:21;;;;;;;9.33;6.60;;;;;21.90;100210.00;;;;2074138;28;20241;-63
2023/10/23 01:18:22;;;;;;;8.47;6.03;;;;;21.90;100202.00;;;;2071290;28;20206;-63
2023/10/23 01:19:22;;;;;;;8.87;6.10;;;;;21.90;100209.00;;;;2064300;28;20228;-63
2023/10/23 01:20:22;;;;;;;8.57;6.30;;;;;21.90;100210.00;;;;2071604;28;20240;-63
2023/10/23 01:21:23;;;;;;;7.30;6.00;;;;;21.90;100214.00;;;;2078028;28;20342;-63
2023/10/23 01:22:23;;;;;;;6.80;5.53;;;;;21.90;100203.00;;;;2077700;28;20664;-63
2023/10/23 01:23:24;;;;;;;6.20;5.13;;;;;21.90;100200.00;;;;2071608;28;20577;-63
2023/10/23 01:24:24;;;;;;;7.33;5.53;;;;;21.90;100196.00;;;;2064379;28;20213;-63
2023/10/23 01:25:25;;;;;;;7.47;5.60;;;;;21.90;100205.00;;;;2065957;28;20454;-63
2023/10/23 01:26:25;;;;;;;6.90;5.10;;;;;21.90;100201.00;;;;2069877;28;20245;-63
2023/10/23 01:27:25;;;;;;;8.23;5.63;;;;;21.90;100202.00;;;;2066551;28;20231;-63
2023/10/23 01:28:26;;;;;;;5.93;5.03;;;;;21.90;100205.00;;;;2066280;28;20337;-63
2023/10/23 01:29:26;;;;;;;8.93;5.93;;;;;21.90;100208.00;;;;2060969;28;20222;-63
2023/10/23 01:30:28;;;;;;;7.43;5.53;;;;;21.90;100210.00;;;;2078335;28;20701;-63
2023/10/23 01:31:28;;;;;;;6.53;5.53;;;;;21.90;100202.00;;;;2074287;28;20739;-63
2023/10/23 01:32:28;;;;;;;6.00;5.20;;;;;21.90;100208.00;;;;2071334;28;20249;-63
2023/10/23 01:33:29;;;;;;;6.20;4.80;;;;;21.90;100207.00;;;;2072301;28;20245;-63
2023/10/23 01:34:29;;;;;;;7.10;5.57;;;;;21.90;100205.00;;;;2061416;28;20264;-63
2023/10/23 01:35:29;;;;;;;7.47;4.93;;;;;21.90;100213.00;;;;2071180;28;20210;-63
2023/10/23 01:36:30;;;;;;;5.00;4.50;;;;;21.90;100214.00;;;;2076641;28;20214;-63
2023/10/23 01:37:30;;;;;;;5.70;4.90;;;;;21.90;100215.00;;;;2070167;28;20217;-63
2023/10/23 01:38:30;;;;;;;5.73;4.70;;;;;21.90;100205.00;;;;2069126;28;20689;-63
2023/10/23 01:39:31;;;;;;;7.40;4.93;;;;;21.90;100208.00;;;;2055265;28;20235;-63
2023/10/23 01:40:31;;;;;;;5.70;4.43;;;;;21.90;100203.00;;;;2070616;28;20242;-63
2023/10/23 01:41:31;;;;;;;5.63;4.83;;;;;21.80;100208.00;;;;2071344;28;20234;-63
2023/10/23 01:42:32;;;;;;;8.63;5.50;;;;;21.90;100206.00;;;;2071303;28;20742;-63
2023/10/23 01:43:32;;;;;;;6.73;5.37;;;;;21.90;100116.00;;;;2070848;28;20305;-63
2023/10/23 01:44:32;;;;;;;8.10;5.10;;;;;21.90;100207.00;;;;2052609;28;20230;-63
2023/10/23 01:45:33;;;;;;;5.73;5.13;;;;;21.90;100207.00;;;;2063351;28;20215;-63
2023/10/23 01:46:33;;;;;;;7.77;4.80;;;;;21.90;100216.00;;;;2071412;28;20249;-63
2023/10/23 01:47:33;;;;;;;6.63;5.00;;;;;21.90;100209.00;;;;2070572;28;20264;-63
2023/10/23 01:48:34;;;;;;;6.00;4.93;;;;;21.80;100204.00;;;;2069746;28;20250;-63
2023/10/23 01:49:34;;;;;;;8.63;4.90;;;;;21.80;100206.00;;;;2054038;28;20219;-63
2023/10/23 01:50:36;;;;;;;6.57;5.33;;;;;21.80;100139.00;;;;2073635;28;20228;-63
2023/10/23 01:51:36;;;;;;;5.15;4.65;;;;;21.90;100207.00;;;;2069386;28;20225;-63
2023/10/23 01:52:37;;;;;;;6.27;4.47;;;;;21.80;100213.00;;;;2064159;28;20245;-63
2023/10/23 01:53:37;;;;;;;5.87;4.37;;;;;21.80;100209.00;;;;2071383;28;20214;-63
2023/10/23 01:54:38;;;;;;;5.80;4.60;;;;;21.80;100216.00;;;;2061369;28;20226;-63
2023/10/23 01:55:40;;;;;;;5.73;4.67;;;;;21.80;100213.00;;;;2074256;28;20225;-63
2023/10/23 01:56:40;;;;;;;5.60;4.18;;;;;21.80;100213.00;;;;2072382;28;20306;-63
2023/10/23 01:57:41;;;;;;;5.00;3.87;;;;;21.80;100211.00;;;;2072660;28;20566;-63
2023/10/23 01:58:41;;;;;;;4.50;4.00;;;;;21.80;100211.00;;;;2069639;28;20736;-63
2023/10/23 01:59:41;;;;;;;5.63;4.13;;;;;21.80;100193.00;;;;2061704;28;20576;-63
2023/10/23 02:00:42;;;;;;;5.93;4.53;;;;;21.80;100208.00;;;;2077988;28;20209;-63
2023/10/23 02:01:42;;;;;;;4.40;3.97;;;;;21.90;100210.00;;;;2074647;28;20210;-63
2023/10/23 02:02:42;;;;;;;5.17;4.03;;;;;21.80;100201.00;;;;2067535;28;20574;-63
2023/10/23 02:03:43;;;;;;;5.63;4.77;;;;;21.80;100201.00;;;;2064254;28;20587;-63
2023/10/23 02:04:43;;;;;;;5.50;4.13;;;;;21.80;100204.00;;;;2060203;28;20214;-63
2023/10/23 02:05:46;;;;;;;5.30;4.20;;;;;21.80;100202.00;;;;2072901;28;20348;-63
2023/10/23 02:06:46;;;;;;;6.05;4.07;;;;;21.80;100202.00;;;;2069941;28;20225;-63
2023/10/23 02:07:47;;;;;;;4.90;4.17;;;;;21.80;100206.00;;;;2069020;28;20241;-63
2023/10/23 02:08:47;;;;;;;6.50;4.43;;;;;21.80;100200.00;;;;2064828;28;20238;-63
2023/10/23 02:09:47;;;;;;;6.17;4.00;;;;;21.80;100207.00;;;;2062438;28;20574;-63
2023/10/23 02:10:48;;;;;;;7.23;4.40;;;;;21.80;100210.00;;;;2072467;28;20622;-63
2023/10/23 02:11:48;;;;;;;4.10;3.63;;;;;21.80;100209.00;;;;2071084;28;21155;-63
2023/10/23 02:12:48;;;;;;;5.60;3.83;;;;;21.80;100209.00;;;;2069429;28;20614;-63
2023/10/23 02:13:49;;;;;;;5.87;4.10;;;;;21.80;100209.00;;;;2065861;28;20701;-63
2023/10/23 02:14:51;;;;;;;5.13;3.80;;;;;21.80;100211.00;;;;2062688;28;20729;-63
2023/10/23 02:15:52;;;;;;;5.07;3.67;;;;;21.80;100212.00;;;;2068872;28;20211;-63
2023/10/23 02:16:52;;;;;;;4.50;3.83;;;;;21.80;100207.00;;;;2060661;28;20247;-63
2023/10/23 02:17:52;;;;;;;4.50;3.70;;;;;21.80;100208.00;;;;2060918;28;20207;-63
2023/10/23 02:18:53;;;;;;;4.53;3.33;;;;;21.80;100206.00;;;;2058636;28;20250;-63
2023/10/23 02:19:53;;;;;;;4.10;3.40;;;;;21.80;100206.00;;;;2054974;28;20234;-63
2023/10/23 02:20:53;;;;;;;3.90;3.30;;;;;21.80;100210.00;;;;2060809;28;20212;-63
2023/10/23 02:21:54;;;;;;;4.00;3.47;;;;;21.80;100213.00;;;;2060431;28;20215;-63
2023/10/23 02:22:54;;;;;;;6.30;4.30;;;;;21.80;100212.00;;;;2060722;28;20216;-63
2023/10/23 02:23:54;;;;;;;4.57;3.27;;;;;21.80;100220.00;;;;2062969;28;20210;-63
2023/10/23 02:24:55;;;;;;;4.03;3.10;;;;;21.80;100214.00;;;;2057838;28;20207;-63
2023/10/23 02:25:55;;;;;;;4.67;3.47;;;;;21.80;100224.00;;;;2060335;28;20234;-63
2023/10/23 02:26:56;;;;;;;4.27;3.40;;;;;21.80;100228.00;;;;2062775;28;20579;-63
2023/10/23 02:27:56;;;;;;;4.53;3.30;;;;;21.80;100225.00;;;;2060610;28;20231;-63
2023/10/23 02:28:57;;;;;;;5.50;4.07;;;;;21.80;100228.00;;;;2061712;28;20488;-63
2023/10/23 02:29:58;;;;;;;4.70;3.50;;;;;21.80;100239.00;;;;2052553;28;20225;-63
2023/10/23 02:31:02;;;;;;;4.60;3.60;;;;;21.80;100233.00;;;;2063249;28;20780;-63
2023/10/23 02:32:03;;;;;;;4.63;3.00;;;;;21.80;100234.00;;;;2061473;28;20458;-63
2023/10/23 02:33:03;;;;;;;4.33;3.40;;;;;21.80;100234.00;;;;2063935;28;20211;-63
2023/10/23 02:34:04;;;;;;;6.57;3.60;;;;;21.80;100235.00;;;;2064273;28;20203;-63
2023/10/23 02:35:05;;;;;;;4.10;3.20;;;;;21.80;100229.00;;;;2052067;28;20223;-63
2023/10/23 02:36:05;;;;;;;3.20;2.57;;;;;21.80;100232.00;;;;2066324;28;20218;-63
2023/10/23 02:37:06;;;;;;;3.50;2.97;;;;;21.80;100233.00;;;;2064346;28;20211;-63
2023/10/23 02:38:06;;;;;;;4.37;3.30;;;;;21.80;100230.00;;;;2063803;28;20211;-63
2023/10/23 02:39:06;;;;;;;3.80;3.27;;;;;21.80;100236.00;;;;2063834;28;20214;-63
2023/10/23 02:40:07;;;;;;;4.13;3.13;;;;;21.80;100231.00;;;;2052314;28;20210;-63
2023/10/23 02:41:08;;;;;;;7.18;3.20;;;;;21.80;100232.00;;;;2063830;28;20221;-63
2023/10/23 02:42:08;;;;;;;3.77;3.33;;;;;21.80;100233.00;;;;2064561;28;20226;-63
2023/10/23 02:43:08;;;;;;;3.30;3.00;;;;;21.80;100232.00;;;;2063012;28;20218;-63
2023/10/23 02:44:10;;;;;;;3.97;2.87;;;;;21.80;100232.00;;;;2064576;28;20289;-63
2023/10/23 02:45:11;;;;;;;4.00;3.38;;;;;21.80;100231.00;;;;2053441;28;20218;-63
2023/10/23 02:46:11;;;;;;;4.60;3.37;;;;;21.80;100226.00;;;;2059157;28;20215;-63
2023/10/23 02:47:11;;;;;;;4.40;3.00;;;;;21.80;100234.00;;;;2064398;28;20273;-63
2023/10/23 02:48:13;;;;;;;3.53;3.23;;;;;21.80;100229.00;;;;2064354;28;20239;-63
2023/10/23 02:49:13;;;;;;;3.75;3.08;;;;;21.80;100224.00;;;;2058616;28;20208;-63
2023/10/23 02:50:14;;;;;;;3.57;3.20;;;;;21.80;100230.00;;;;2052927;28;20269;-63
2023/10/23 02:51:14;;;;;;;3.83;2.90;;;;;21.80;100228.00;;;;2064200;28;20204;-63
2023/10/23 02:52:15;;;;;;;3.67;3.10;;;;;21.80;100229.00;;;;2064746;28;20469;-63
2023/10/23 02:53:16;;;;;;;4.20;2.95;;;;;21.80;100226.00;;;;2065956;28;20314;-63
2023/10/23 02:54:16;;;;;;;3.27;2.80;;;;;21.80;100229.00;;;;2064530;28;20822;-63
2023/10/23 02:55:16;;;;;;;3.90;3.27;;;;;21.80;100228.00;;;;2054181;28;20753;-63
2023/10/23 02:56:17;;;;;;;3.70;3.30;;;;;21.80;100232.00;;;;2064436;28;20881;-63
2023/10/23 02:57:17;;;;;;;3.80;3.07;;;;;21.80;100232.00;;;;2063481;28;20268;-63
2023/10/23 02:58:17;;;;;;;3.50;2.83;;;;;21.70;100236.00;;;;2064174;28;20218;-63
2023/10/23 02:59:17;;;;;;;2.80;2.37;;;;;21.80;100228.00;;;;2051014;28;20262;-63
2023/10/23 03:00:20;;;;;;;3.33;2.60;;;;;21.80;100232.00;;;;2065052;28;20230;-63
2023/10/23 03:01:21;;;;;;;4.32;2.80;;;;;21.70;100239.00;;;;2069104;28;20226;-63
2023/10/23 03:02:22;;;;;;;2.93;2.50;;;;;21.70;100231.00;;;;2062576;28;20218;-63
2023/10/23 03:03:22;;;;;;;3.17;2.75;;;;;21.70;100235.00;;;;2056524;28;20645;-63
2023/10/23 03:04:23;;;;;;;3.57;2.70;;;;;21.70;100243.00;;;;2061088;28;20214;-63
2023/10/23 03:05:23;;;;;;;3.90;2.63;;;;;21.80;100238.00;;;;2071923;28;20830;-63
2023/10/23 03:06:23;;;;;;;3.17;2.60;;;;;21.80;100239.00;;;;2071601;28;20736;-63
2023/10/23 03:07:24;;;;;;;3.60;2.57;;;;;21.70;100241.00;;;;2066534;28;20222;-63
2023/10/23 03:08:24;;;;;;;3.67;3.20;;;;;21.70;100248.00;;;;2065033;28;20301;-63
2023/10/23 03:09:24;;;;;;;3.60;3.00;;;;;21.70;100239.00;;;;2060448;28;20229;-63
2023/10/23 03:10:24;;;;;;;3.23;2.40;;;;;21.70;100239.00;;;;2064926;28;20219;-63
2023/10/23 03:11:25;;;;;;;3.73;2.90;;;;;21.60;100236.00;;;;2067720;28;20247;-63
2023/10/23 03:12:26;;;;;;;3.80;2.60;;;;;21.70;100244.00;;;;2067219;28;20218;-63
2023/10/23 03:13:27;;;;;;;3.47;2.60;;;;;21.70;100241.00;;;;2057765;28;20993;-63
2023/10/23 03:14:27;;;;;;;4.00;2.70;;;;;21.70;100178.00;;;;2062183;28;20465;-63
2023/10/23 03:15:27;;;;;;;3.37;2.40;;;;;21.70;100232.00;;;;2072188;28;20280;-63
2023/10/23 03:16:29;;;;;;;2.90;2.30;;;;;21.70;100239.00;;;;2072512;28;20218;-63
2023/10/23 03:17:30;;;;;;;3.25;2.42;;;;;21.70;100233.00;;;;2063669;28;20229;-63
2023/10/23 03:18:30;;;;;;;3.20;2.75;;;;;21.70;100243.00;;;;2061868;28;20239;-63
2023/10/23 03:19:30;;;;;;;3.60;2.40;;;;;21.70;100238.00;;;;2054360;28;20226;-63
2023/10/23 03:20:31;;;;;;;3.20;2.57;;;;;21.70;100249.00;;;;2058168;28;20283;-63
2023/10/23 03:21:32;;;;;;;2.80;2.20;;;;;21.70;100245.00;;;;2073070;28;20218;-63
2023/10/23 03:22:32;;;;;;;2.53;2.23;;;;;21.70;100251.00;;;;2063788;28;20277;-63
2023/10/23 03:23:33;;;;;;;3.47;2.30;;;;;21.70;100247.00;;;;2067020;28;20445;-63
2023/10/23 03:24:33;;;;;;;2.53;2.33;;;;;21.70;100243.00;;;;2054990;28;20230;-63
2023/10/23 03:25:33;;;;;;;3.43;2.30;;;;;21.70;100249.00;;;;2070842;28;20198;-63
2023/10/23 03:26:34;;;;;;;4.07;2.73;;;;;21.70;100242.00;;;;2064075;28;20281;-63
2023/10/23 03:27:34;;;;;;;3.40;2.30;;;;;21.70;100245.00;;;;2070777;28;20230;-63
2023/10/23 03:28:35;;;;;;;3.73;2.50;;;;;21.70;100204.00;;;;2076423;28;20276;-63
2023/10/23 03:29:35;;;;;;;4.00;2.60;;;;;21.70;100230.00;;;;2055272;28;20254;-63
2023/10/23 03:30:35;;;;;;;2.87;2.03;;;;;21.70;100240.00;;;;2070291;28;20701;-63
2023/10/23 03:31:36;;;;;;;4.20;2.80;;;;;21.70;100233.00;;;;2064227;28;20218;-63
2023/10/23 03:32:36;;;;;;;3.47;2.40;;;;;21.70;100236.00;;;;2071233;28;20244;-63
2023/10/23 03:33:37;;;;;;;2.40;2.00;;;;;21.70;100240.00;;;;2071333;28;20221;-63
2023/10/23 03:34:37;;;;;;;2.75;2.00;;;;;21.70;100243.00;;;;2055025;28;20214;-63
2023/10/23 03:35:42;;;;;;;3.37;2.40;;;;;21.70;100241.00;;;;2073432;28;20705;-63
2023/10/23 03:36:42;;;;;;;3.53;2.28;;;;;21.70;100238.00;;;;2070497;28;20234;-63
2023/10/23 03:37:43;;;;;;;2.63;2.00;;;;;21.70;100247.00;;;;2071766;28;20251;-63
2023/10/23 03:38:43;;;;;;;2.67;2.07;;;;;21.70;100244.00;;;;2067716;28;20207;-63
2023/10/23 03:39:43;;;;;;;3.13;2.30;;;;;21.70;100233.00;;;;2058750;28;20249;-63
2023/10/23 03:40:59;;;;;;;2.83;2.20;;;;;21.70;100179.00;;;;2070370;28;20237;-63
2023/10/23 03:41:59;;;;;;;2.50;1.80;;;;;21.70;100244.00;;;;2068047;28;20574;-63
2023/10/23 03:43:00;;;;;;;3.00;2.00;;;;;21.70;100245.00;;;;2068830;28;20219;-63
2023/10/23 03:44:02;;;;;;;2.23;2.00;;;;;21.70;100244.00;;;;2068519;28;20223;-63
2023/10/23 03:45:03;;;;;;;3.42;2.45;;;;;21.70;100243.00;;;;2064845;28;20228;-63
2023/10/23 03:46:04;;;;;;;2.85;2.40;;;;;21.70;100241.00;;;;2072102;28;20249;-63
2023/10/23 03:47:04;;;;;;;3.20;2.20;;;;;21.50;100240.00;;;;2067831;28;20292;-63
2023/10/23 03:48:05;;;;;;;2.73;2.07;;;;;21.70;100215.00;;;;2066230;28;20229;-63
2023/10/23 03:49:05;;;;;;;4.00;1.80;;;;;21.70;100241.00;;;;2070918;28;20222;-63
2023/10/23 03:50:06;;;;;;;2.60;1.93;;;;;21.70;100235.00;;;;2063138;28;20728;-63
2023/10/23 03:51:06;;;;;;;2.10;1.80;;;;;21.70;100242.00;;;;2071629;28;20252;-63
2023/10/23 03:52:06;;;;;;;3.10;1.70;;;;;21.70;100251.00;;;;2068526;28;20222;-63
2023/10/23 03:53:07;;;;;;;3.43;2.17;;;;;21.70;100254.00;;;;2067720;28;20230;-63
2023/10/23 03:54:07;;;;;;;3.10;2.03;;;;;21.70;100249.00;;;;2076444;28;20217;-63
2023/10/23 03:55:07;;;;;;;4.47;2.10;;;;;21.70;100223.00;;;;2061659;28;20213;-63
2023/10/23 03:56:08;;;;;;;2.80;2.03;;;;;21.70;100253.00;;;;2071169;28;20210;-63
2023/10/23 03:57:08;;;;;;;9.67;2.20;;;;;21.70;100250.00;;;;2067290;28;20246;-63
2023/10/23 03:58:08;;;;;;;3.00;1.93;;;;;21.70;100246.00;;;;2068379;28;20214;-63
2023/10/23 03:59:09;;;;;;;2.27;1.80;;;;;21.70;100248.00;;;;2073178;28;20226;-63
2023/10/23 04:00:10;;;;;;;2.20;1.77;;;;;21.60;100250.00;;;;2053200;28;20211;-63
2023/10/23 04:01:12;;;;;;;2.70;1.80;;;;;21.70;100248.00;;;;2062905;28;21067;-63
2023/10/23 04:02:12;;;;;;;2.72;1.65;;;;;21.70;100244.00;;;;2057017;28;20306;-63
2023/10/23 04:03:12;;;;;;;3.37;2.30;;;;;21.50;100248.00;;;;2044375;28;20228;-63
2023/10/23 04:04:13;;;;;;;3.73;2.10;;;;;21.70;100247.00;;;;2057996;28;20318;-63
2023/10/23 04:05:13;;;;;;;3.40;2.10;;;;;21.70;100236.00;;;;2050716;28;20235;-63
2023/10/23 04:06:14;;;;;;;2.53;1.83;;;;;21.70;100246.00;;;;2071934;28;20214;-63
2023/10/23 04:07:14;;;;;;;4.30;2.23;;;;;21.70;100241.00;;;;2066623;28;20276;-63
2023/10/23 04:08:14;;;;;;;3.97;1.80;;;;;21.70;100238.00;;;;2073636;28;20209;-63
2023/10/23 04:09:15;;;;;;;2.60;1.70;;;;;21.70;100251.00;;;;2072302;28;20276;-63
2023/10/23 04:10:15;;;;;;;2.00;1.77;;;;;21.70;100247.00;;;;2063435;28;20759;-63
2023/10/23 04:11:16;;;;;;;2.10;1.90;;;;;21.60;100243.00;;;;2073585;28;20694;-63
2023/10/23 04:12:16;;;;;;;2.20;1.63;;;;;21.60;100254.00;;;;2056689;28;20747;-63
2023/10/23 04:13:16;;;;;;;4.50;2.27;;;;;21.60;100250.00;;;;2061219;28;20234;-63
2023/10/23 04:14:17;;;;;;;2.63;1.90;;;;;21.60;100252.00;;;;2068437;28;20276;-63
2023/10/23 04:15:17;;;;;;;1.63;1.53;;;;;21.60;100252.00;;;;2066699;28;20226;-63
2023/10/23 04:16:17;;;;;;;2.10;1.70;;;;;21.60;100257.00;;;;2072116;28;20222;-63
2023/10/23 04:17:18;;;;;;;2.80;1.73;;;;;21.60;100261.00;;;;2068688;28;21012;-63
2023/10/23 04:18:18;;;;;;;4.87;1.83;;;;;21.60;100254.00;;;;2065232;28;20619;-63
2023/10/23 04:19:18;;;;;;;2.50;1.73;;;;;21.60;100248.00;;;;2054337;28;20690;-63
2023/10/23 04:20:19;;;;;;;1.93;1.63;;;;;21.60;100255.00;;;;2068778;28;20617;-63
2023/10/23 04:21:20;;;;;;;2.20;1.90;;;;;21.60;100214.00;;;;2065331;28;20227;-63
2023/10/23 04:22:21;;;;;;;2.00;1.65;;;;;21.60;100253.00;;;;2066552;28;20218;-63
2023/10/23 04:23:21;;;;;;;2.73;1.80;;;;;21.60;100253.00;;;;2056904;28;20249;-63
2023/10/23 04:24:21;;;;;;;2.57;1.80;;;;;21.60;100248.00;;;;2045799;28;20225;-63
2023/10/23 04:25:22;;;;;;;2.70;1.80;;;;;21.60;100239.00;;;;2069477;28;20214;-63
2023/10/23 04:26:22;;;;;;;2.63;1.80;;;;;21.60;100209.00;;;;2071682;28;20246;-63
2023/10/23 04:27:22;;;;;;;2.40;1.70;;;;;21.60;100247.00;;;;2078550;28;20214;-63
2023/10/23 04:28:23;;;;;;;2.50;1.80;;;;;21.60;100245.00;;;;2072345;28;20221;-63
2023/10/23 04:29:23;;;;;;;2.73;2.03;;;;;21.60;100251.00;;;;2059737;28;20218;-63
2023/10/23 04:30:23;;;;;;;3.00;1.73;;;;;21.60;100251.00;;;;2070706;28;20847;-63
2023/10/23 04:31:24;;;;;;;2.60;2.00;;;;;21.60;100256.00;;;;2064698;28;20725;-63
2023/10/23 04:32:24;;;;;;;2.50;1.80;;;;;21.60;100255.00;;;;2068811;28;20206;-63
2023/10/23 04:33:24;;;;;;;3.30;1.43;;;;;21.60;100251.00;;;;2071638;28;20214;-63
2023/10/23 04:34:25;;;;;;;2.37;1.70;;;;;21.60;100262.00;;;;2057410;28;20389;-63
2023/10/23 04:35:25;;;;;;;3.07;1.50;;;;;21.60;100260.00;;;;2071215;28;20233;-63
2023/10/23 04:36:25;;;;;;;3.33;1.37;;;;;21.60;100261.00;;;;2065110;28;20211;-63
2023/10/23 04:37:26;;;;;;;3.07;1.70;;;;;21.60;100262.00;;;;2069708;28;20616;-63
2023/10/23 04:38:26;;;;;;;2.13;1.50;;;;;21.60;100259.00;;;;2071689;28;20776;-63
2023/10/23 04:39:27;;;;;;;3.00;1.73;;;;;21.60;100269.00;;;;2063702;28;20720;-63
2023/10/23 04:40:29;;;;;;;1.90;1.50;;;;;21.60;100261.00;;;;2072985;28;20218;-63
2023/10/23 04:41:30;;;;;;;2.10;1.80;;;;;21.60;100264.00;;;;2070391;28;20793;-63
2023/10/23 04:42:30;;;;;;;2.20;2.00;;;;;21.60;100267.00;;;;2064605;28;20246;-63
2023/10/23 04:43:30;;;;;;;1.90;1.50;;;;;21.60;100263.00;;;;2067075;28;20296;-63
2023/10/23 04:44:31;;;;;;;2.40;1.67;;;;;21.60;100266.00;;;;2060290;28;20645;-63
2023/10/23 04:45:31;;;;;;;1.87;1.40;;;;;21.60;100258.00;;;;2072224;28;20651;-63
2023/10/23 04:46:31;;;;;;;2.50;1.40;;;;;21.60;100263.00;;;;2071559;28;20207;-63
2023/10/23 04:47:32;;;;;;;1.50;1.30;;;;;21.60;100258.00;;;;2064283;28;20273;-63
2023/10/23 04:48:32;;;;;;;1.67;1.27;;;;;21.60;100255.00;;;;2065209;28;20215;-63
2023/10/23 04:49:32;;;;;;;2.50;1.33;;;;;21.60;100258.00;;;;2056656;28;20815;-63
2023/10/23 04:50:33;;;;;;;1.77;1.40;;;;;21.60;100270.00;;;;2062502;28;20215;-63
2023/10/23 04:51:34;;;;;;;2.60;1.50;;;;;21.60;100260.00;;;;2065232;28;20246;-63
2023/10/23 04:52:34;;;;;;;2.30;1.60;;;;;21.60;100262.00;;;;2063749;28;20457;-63
2023/10/23 04:53:35;;;;;;;2.83;1.70;;;;;21.60;100264.00;;;;2073556;28;20214;-63
2023/10/23 04:54:35;;;;;;;1.90;1.53;;;;;21.60;100271.00;;;;2056958;28;20306;-63
2023/10/23 04:55:41;;;;;;;2.03;1.30;;;;;21.50;100263.00;;;;2066042;28;20275;-63
2023/10/23 04:56:41;;;;;;;1.88;1.30;;;;;21.60;100269.00;;;;2067295;28;20219;-63
2023/10/23 04:57:41;;;;;;;2.27;1.47;;;;;21.60;100267.00;;;;2056198;28;20226;-63
2023/10/23 04:58:43;;;;;;;1.90;1.57;;;;;21.60;100271.00;;;;2068512;28;20210;-63